sensor_id;sensor_type;location;lat;lon;timestamp;P1;durP1;ratioP1;P2;durP2;ratioP2
66429;SDS011;53242;51.694;10.006;2023-01-19T00:01:13;6.20;;;1.98;;
66429;SDS011;53242;51.694;10.006;2023-01-19T00:03:36;9.23;;;2.70;;
66429;SDS011;53242;51.694;10.006;2023-01-19T00:06:03;7.85;;;2.55;;
66429;SDS011;53242;51.694;10.006;2023-01-19T00:08:26;10.85;;;3.08;;
66429;SDS011;53242;51.694;10.006;2023-01-19T00:10:49;10.98;;;3.15;;
66429;SDS011;53242;51.694;10.006;2023-01-19T00:13:14;11.93;;;3.78;;
66429;SDS011;53242;51.694;10.006;2023-01-19T00:15:37;5.80;;;1.73;;
66429;SDS011;53242;51.694;10.006;2023-01-19T00:17:59;9.23;;;2.83;;
66429;SDS011;53242;51.694;10.006;2023-01-19T00:20:22;7.47;;;3.05;;
66429;SDS011;53242;51.694;10.006;2023-01-19T00:22:44;5.18;;;2.25;;
66429;SDS011;53242;51.694;10.006;2023-01-19T00:25:11;9.38;;;3.25;;
66429;SDS011;53242;51.694;10.006;2023-01-19T00:27:34;10.77;;;3.00;;
66429;SDS011;53242;51.694;10.006;2023-01-19T00:29:56;7.13;;;2.47;;
66429;SDS011;53242;51.694;10.006;2023-01-19T00:32:18;8.32;;;2.33;;
66429;SDS011;53242;51.694;10.006;2023-01-19T00:34:41;5.75;;;2.22;;
66429;SDS011;53242;51.694;10.006;2023-01-19T00:37:10;7.05;;;2.20;;
66429;SDS011;53242;51.694;10.006;2023-01-19T00:39:32;6.63;;;2.22;;
66429;SDS011;53242;51.694;10.006;2023-01-19T00:41:55;7.97;;;2.03;;
66429;SDS011;53242;51.694;10.006;2023-01-19T00:44:36;4.20;;;1.40;;
66429;SDS011;53242;51.694;10.006;2023-01-19T00:46:58;2.78;;;1.00;;
66429;SDS011;53242;51.694;10.006;2023-01-19T00:49:22;6.55;;;2.67;;
66429;SDS011;53242;51.694;10.006;2023-01-19T00:51:44;11.10;;;3.58;;
66429;SDS011;53242;51.694;10.006;2023-01-19T00:54:06;7.68;;;2.45;;
66429;SDS011;53242;51.694;10.006;2023-01-19T00:56:31;6.07;;;1.98;;
66429;SDS011;53242;51.694;10.006;2023-01-19T00:58:53;7.72;;;2.45;;
66429;SDS011;53242;51.694;10.006;2023-01-19T01:01:16;11.05;;;3.38;;
66429;SDS011;53242;51.694;10.006;2023-01-19T01:03:38;8.57;;;2.88;;
66429;SDS011;53242;51.694;10.006;2023-01-19T01:06:00;7.50;;;2.42;;
66429;SDS011;53242;51.694;10.006;2023-01-19T01:08:24;7.90;;;2.35;;
66429;SDS011;53242;51.694;10.006;2023-01-19T01:10:47;7.15;;;2.42;;
66429;SDS011;53242;51.694;10.006;2023-01-19T01:13:09;7.95;;;2.78;;
66429;SDS011;53242;51.694;10.006;2023-01-19T01:15:31;8.13;;;2.30;;
66429;SDS011;53242;51.694;10.006;2023-01-19T01:17:54;7.65;;;2.22;;
66429;SDS011;53242;51.694;10.006;2023-01-19T01:20:17;8.27;;;2.40;;
66429;SDS011;53242;51.694;10.006;2023-01-19T01:22:47;8.55;;;1.40;;
66429;SDS011;53242;51.694;10.006;2023-01-19T01:25:13;6.28;;;2.05;;
66429;SDS011;53242;51.694;10.006;2023-01-19T01:27:37;8.70;;;2.63;;
66429;SDS011;53242;51.694;10.006;2023-01-19T01:29:59;7.32;;;2.28;;
66429;SDS011;53242;51.694;10.006;2023-01-19T01:32:22;4.63;;;1.67;;
66429;SDS011;53242;51.694;10.006;2023-01-19T01:34:44;8.60;;;2.53;;
66429;SDS011;53242;51.694;10.006;2023-01-19T01:37:06;5.53;;;1.95;;
66429;SDS011;53242;51.694;10.006;2023-01-19T01:39:29;6.93;;;2.47;;
66429;SDS011;53242;51.694;10.006;2023-01-19T01:41:51;3.05;;;1.20;;
66429;SDS011;53242;51.694;10.006;2023-01-19T01:47:12;6.30;;;2.72;;
66429;SDS011;53242;51.694;10.006;2023-01-19T01:49:35;6.20;;;2.00;;
66429;SDS011;53242;51.694;10.006;2023-01-19T01:51:57;3.28;;;1.10;;
66429;SDS011;53242;51.694;10.006;2023-01-19T01:56:51;7.90;;;2.35;;
66429;SDS011;53242;51.694;10.006;2023-01-19T01:59:49;8.82;;;3.00;;
66429;SDS011;53242;51.694;10.006;2023-01-19T02:02:11;4.78;;;1.98;;
66429;SDS011;53242;51.694;10.006;2023-01-19T02:07:32;5.25;;;1.77;;
66429;SDS011;53242;51.694;10.006;2023-01-19T02:10:21;4.35;;;1.58;;
66429;SDS011;53242;51.694;10.006;2023-01-19T02:13:02;8.00;;;2.55;;
66429;SDS011;53242;51.694;10.006;2023-01-19T02:15:44;6.20;;;2.08;;
66429;SDS011;53242;51.694;10.006;2023-01-19T02:18:06;7.55;;;2.45;;
66429;SDS011;53242;51.694;10.006;2023-01-19T02:20:29;6.32;;;2.65;;
66429;SDS011;53242;51.694;10.006;2023-01-19T02:22:55;6.00;;;2.90;;
66429;SDS011;53242;51.694;10.006;2023-01-19T02:25:22;4.85;;;1.65;;
66429;SDS011;53242;51.694;10.006;2023-01-19T02:27:46;4.30;;;1.10;;
66429;SDS011;53242;51.694;10.006;2023-01-19T02:30:09;6.22;;;1.60;;
66429;SDS011;53242;51.694;10.006;2023-01-19T02:32:32;4.10;;;1.58;;
66429;SDS011;53242;51.694;10.006;2023-01-19T02:34:54;5.80;;;2.00;;
66429;SDS011;53242;51.694;10.006;2023-01-19T02:37:17;3.45;;;1.42;;
66429;SDS011;53242;51.694;10.006;2023-01-19T02:39:41;7.63;;;3.72;;
66429;SDS011;53242;51.694;10.006;2023-01-19T02:42:14;5.68;;;1.77;;
66429;SDS011;53242;51.694;10.006;2023-01-19T02:44:41;4.10;;;1.42;;
66429;SDS011;53242;51.694;10.006;2023-01-19T02:47:06;6.13;;;2.38;;
66429;SDS011;53242;51.694;10.006;2023-01-19T02:49:29;5.90;;;1.83;;
66429;SDS011;53242;51.694;10.006;2023-01-19T02:51:51;6.60;;;1.92;;
66429;SDS011;53242;51.694;10.006;2023-01-19T02:54:17;4.10;;;1.38;;
66429;SDS011;53242;51.694;10.006;2023-01-19T02:57:10;6.93;;;2.00;;
66429;SDS011;53242;51.694;10.006;2023-01-19T03:05:40;5.70;;;2.10;;
66429;SDS011;53242;51.694;10.006;2023-01-19T03:11:13;7.15;;;2.70;;
66429;SDS011;53242;51.694;10.006;2023-01-19T03:16:09;2.67;;;1.42;;
66429;SDS011;53242;51.694;10.006;2023-01-19T03:18:37;7.80;;;2.45;;
66429;SDS011;53242;51.694;10.006;2023-01-19T03:21:05;6.20;;;2.20;;
66429;SDS011;53242;51.694;10.006;2023-01-19T03:23:29;9.68;;;2.53;;
66429;SDS011;53242;51.694;10.006;2023-01-19T03:28:16;6.53;;;2.22;;
66429;SDS011;53242;51.694;10.006;2023-01-19T03:30:44;9.32;;;3.08;;
66429;SDS011;53242;51.694;10.006;2023-01-19T03:33:13;9.15;;;2.88;;
66429;SDS011;53242;51.694;10.006;2023-01-19T03:35:38;5.82;;;2.40;;
66429;SDS011;53242;51.694;10.006;2023-01-19T03:38:06;6.80;;;1.55;;
66429;SDS011;53242;51.694;10.006;2023-01-19T03:40:33;9.57;;;1.90;;
66429;SDS011;53242;51.694;10.006;2023-01-19T03:42:58;4.43;;;1.58;;
66429;SDS011;53242;51.694;10.006;2023-01-19T03:45:21;7.70;;;2.03;;
66429;SDS011;53242;51.694;10.006;2023-01-19T03:47:44;6.65;;;2.30;;
66429;SDS011;53242;51.694;10.006;2023-01-19T03:50:08;5.75;;;2.88;;
66429;SDS011;53242;51.694;10.006;2023-01-19T03:52:36;7.38;;;2.45;;
66429;SDS011;53242;51.694;10.006;2023-01-19T03:54:58;2.03;;;0.93;;
66429;SDS011;53242;51.694;10.006;2023-01-19T03:57:22;6.68;;;2.15;;
66429;SDS011;53242;51.694;10.006;2023-01-19T03:59:45;5.85;;;1.98;;
66429;SDS011;53242;51.694;10.006;2023-01-19T04:02:07;5.80;;;2.33;;
66429;SDS011;53242;51.694;10.006;2023-01-19T04:04:30;5.93;;;1.70;;
66429;SDS011;53242;51.694;10.006;2023-01-19T04:06:53;7.70;;;2.55;;
66429;SDS011;53242;51.694;10.006;2023-01-19T04:09:15;4.05;;;1.50;;
66429;SDS011;53242;51.694;10.006;2023-01-19T04:11:37;11.85;;;2.83;;
66429;SDS011;53242;51.694;10.006;2023-01-19T04:14:00;8.20;;;2.80;;
66429;SDS011;53242;51.694;10.006;2023-01-19T04:16:22;7.85;;;2.13;;
66429;SDS011;53242;51.694;10.006;2023-01-19T04:18:45;6.65;;;2.28;;
66429;SDS011;53242;51.694;10.006;2023-01-19T04:21:08;7.35;;;2.35;;
66429;SDS011;53242;51.694;10.006;2023-01-19T04:23:30;3.30;;;1.25;;
66429;SDS011;53242;51.694;10.006;2023-01-19T04:25:56;9.45;;;3.30;;
66429;SDS011;53242;51.694;10.006;2023-01-19T04:28:19;6.43;;;2.05;;
66429;SDS011;53242;51.694;10.006;2023-01-19T04:30:42;7.05;;;2.92;;
66429;SDS011;53242;51.694;10.006;2023-01-19T04:33:04;5.45;;;1.83;;
66429;SDS011;53242;51.694;10.006;2023-01-19T04:35:27;4.75;;;1.83;;
66429;SDS011;53242;51.694;10.006;2023-01-19T04:37:49;8.38;;;2.38;;
66429;SDS011;53242;51.694;10.006;2023-01-19T04:40:12;7.25;;;2.42;;
66429;SDS011;53242;51.694;10.006;2023-01-19T04:42:34;3.65;;;1.35;;
66429;SDS011;53242;51.694;10.006;2023-01-19T04:44:57;5.00;;;2.05;;
66429;SDS011;53242;51.694;10.006;2023-01-19T04:47:19;6.55;;;2.58;;
66429;SDS011;53242;51.694;10.006;2023-01-19T04:49:41;9.40;;;3.08;;
66429;SDS011;53242;51.694;10.006;2023-01-19T04:52:04;9.30;;;2.20;;
66429;SDS011;53242;51.694;10.006;2023-01-19T04:54:27;13.68;;;3.17;;
66429;SDS011;53242;51.694;10.006;2023-01-19T04:56:49;12.88;;;3.63;;
66429;SDS011;53242;51.694;10.006;2023-01-19T04:59:12;7.63;;;2.72;;
66429;SDS011;53242;51.694;10.006;2023-01-19T05:01:35;5.97;;;2.30;;
66429;SDS011;53242;51.694;10.006;2023-01-19T05:03:58;6.82;;;3.08;;
66429;SDS011;53242;51.694;10.006;2023-01-19T05:06:20;11.52;;;2.78;;
66429;SDS011;53242;51.694;10.006;2023-01-19T05:08:43;8.73;;;3.58;;
66429;SDS011;53242;51.694;10.006;2023-01-19T05:11:05;8.98;;;2.90;;
66429;SDS011;53242;51.694;10.006;2023-01-19T05:13:28;9.45;;;3.00;;
66429;SDS011;53242;51.694;10.006;2023-01-19T05:15:50;6.55;;;2.90;;
66429;SDS011;53242;51.694;10.006;2023-01-19T05:18:12;8.02;;;2.83;;
66429;SDS011;53242;51.694;10.006;2023-01-19T05:20:35;5.97;;;2.30;;
66429;SDS011;53242;51.694;10.006;2023-01-19T05:22:57;8.10;;;2.53;;
66429;SDS011;53242;51.694;10.006;2023-01-19T05:25:20;7.07;;;2.72;;
66429;SDS011;53242;51.694;10.006;2023-01-19T05:27:42;9.68;;;2.97;;
66429;SDS011;53242;51.694;10.006;2023-01-19T05:30:05;7.82;;;2.75;;
66429;SDS011;53242;51.694;10.006;2023-01-19T05:32:28;4.30;;;1.95;;
66429;SDS011;53242;51.694;10.006;2023-01-19T05:34:50;9.98;;;2.97;;
66429;SDS011;53242;51.694;10.006;2023-01-19T05:37:13;4.93;;;1.95;;
66429;SDS011;53242;51.694;10.006;2023-01-19T05:39:35;11.10;;;3.50;;
66429;SDS011;53242;51.694;10.006;2023-01-19T05:41:58;8.05;;;2.40;;
66429;SDS011;53242;51.694;10.006;2023-01-19T05:44:20;7.20;;;2.97;;
66429;SDS011;53242;51.694;10.006;2023-01-19T05:46:43;7.55;;;3.10;;
66429;SDS011;53242;51.694;10.006;2023-01-19T05:49:05;10.30;;;3.13;;
66429;SDS011;53242;51.694;10.006;2023-01-19T05:51:29;6.18;;;2.20;;
66429;SDS011;53242;51.694;10.006;2023-01-19T05:53:56;5.20;;;2.25;;
66429;SDS011;53242;51.694;10.006;2023-01-19T05:56:18;9.32;;;2.95;;
66429;SDS011;53242;51.694;10.006;2023-01-19T05:58:40;4.45;;;2.15;;
66429;SDS011;53242;51.694;10.006;2023-01-19T06:01:04;10.48;;;3.90;;
66429;SDS011;53242;51.694;10.006;2023-01-19T06:03:27;9.88;;;3.53;;
66429;SDS011;53242;51.694;10.006;2023-01-19T06:05:50;9.82;;;3.25;;
66429;SDS011;53242;51.694;10.006;2023-01-19T06:08:12;5.13;;;2.45;;
66429;SDS011;53242;51.694;10.006;2023-01-19T06:10:35;8.63;;;2.97;;
66429;SDS011;53242;51.694;10.006;2023-01-19T06:12:57;12.40;;;2.80;;
66429;SDS011;53242;51.694;10.006;2023-01-19T06:15:20;3.67;;;1.38;;
66429;SDS011;53242;51.694;10.006;2023-01-19T06:17:42;5.28;;;2.30;;
66429;SDS011;53242;51.694;10.006;2023-01-19T06:20:05;9.18;;;2.65;;
66429;SDS011;53242;51.694;10.006;2023-01-19T06:22:28;8.65;;;2.60;;
66429;SDS011;53242;51.694;10.006;2023-01-19T06:24:50;5.90;;;2.15;;
66429;SDS011;53242;51.694;10.006;2023-01-19T06:27:12;9.35;;;2.78;;
66429;SDS011;53242;51.694;10.006;2023-01-19T06:29:35;5.47;;;2.22;;
66429;SDS011;53242;51.694;10.006;2023-01-19T06:31:57;6.57;;;2.67;;
66429;SDS011;53242;51.694;10.006;2023-01-19T06:34:20;6.57;;;2.47;;
66429;SDS011;53242;51.694;10.006;2023-01-19T06:36:42;8.57;;;3.13;;
66429;SDS011;53242;51.694;10.006;2023-01-19T06:41:31;8.32;;;2.80;;
66429;SDS011;53242;51.694;10.006;2023-01-19T06:43:54;7.10;;;2.53;;
66429;SDS011;53242;51.694;10.006;2023-01-19T06:46:16;8.60;;;3.05;;
66429;SDS011;53242;51.694;10.006;2023-01-19T06:48:39;6.10;;;2.38;;
66429;SDS011;53242;51.694;10.006;2023-01-19T06:51:01;6.53;;;2.72;;
66429;SDS011;53242;51.694;10.006;2023-01-19T06:53:24;6.50;;;2.42;;
66429;SDS011;53242;51.694;10.006;2023-01-19T06:55:48;7.28;;;2.38;;
66429;SDS011;53242;51.694;10.006;2023-01-19T06:58:11;8.40;;;2.65;;
66429;SDS011;53242;51.694;10.006;2023-01-19T07:00:34;6.55;;;2.55;;
66429;SDS011;53242;51.694;10.006;2023-01-19T07:02:56;12.95;;;3.20;;
66429;SDS011;53242;51.694;10.006;2023-01-19T07:05:19;5.43;;;2.28;;
66429;SDS011;53242;51.694;10.006;2023-01-19T07:07:43;7.25;;;2.30;;
66429;SDS011;53242;51.694;10.006;2023-01-19T07:10:06;9.98;;;3.25;;
66429;SDS011;53242;51.694;10.006;2023-01-19T07:12:29;6.13;;;2.28;;
66429;SDS011;53242;51.694;10.006;2023-01-19T07:14:51;7.72;;;2.38;;
66429;SDS011;53242;51.694;10.006;2023-01-19T07:17:14;10.50;;;3.63;;
66429;SDS011;53242;51.694;10.006;2023-01-19T07:19:36;9.68;;;2.72;;
66429;SDS011;53242;51.694;10.006;2023-01-19T07:21:59;9.30;;;2.85;;
66429;SDS011;53242;51.694;10.006;2023-01-19T07:24:21;10.75;;;3.42;;
66429;SDS011;53242;51.694;10.006;2023-01-19T07:26:44;7.80;;;2.42;;
66429;SDS011;53242;51.694;10.006;2023-01-19T07:29:06;5.97;;;2.08;;
66429;SDS011;53242;51.694;10.006;2023-01-19T07:31:29;6.13;;;2.35;;
66429;SDS011;53242;51.694;10.006;2023-01-19T07:33:51;12.90;;;3.83;;
66429;SDS011;53242;51.694;10.006;2023-01-19T07:36:13;12.98;;;4.63;;
66429;SDS011;53242;51.694;10.006;2023-01-19T07:38:36;9.80;;;3.70;;
66429;SDS011;53242;51.694;10.006;2023-01-19T07:41:08;6.65;;;2.38;;
66429;SDS011;53242;51.694;10.006;2023-01-19T07:43:31;8.48;;;2.70;;
66429;SDS011;53242;51.694;10.006;2023-01-19T07:45:55;7.22;;;2.72;;
66429;SDS011;53242;51.694;10.006;2023-01-19T07:48:21;5.93;;;2.42;;
66429;SDS011;53242;51.694;10.006;2023-01-19T07:50:44;6.30;;;2.75;;
66429;SDS011;53242;51.694;10.006;2023-01-19T07:53:08;3.58;;;1.45;;
66429;SDS011;53242;51.694;10.006;2023-01-19T07:55:32;7.07;;;2.38;;
66429;SDS011;53242;51.694;10.006;2023-01-19T07:57:55;5.38;;;2.25;;
66429;SDS011;53242;51.694;10.006;2023-01-19T08:00:18;6.45;;;1.95;;
66429;SDS011;53242;51.694;10.006;2023-01-19T08:02:42;7.20;;;2.00;;
66429;SDS011;53242;51.694;10.006;2023-01-19T08:05:05;8.20;;;3.10;;
66429;SDS011;53242;51.694;10.006;2023-01-19T08:07:28;9.27;;;3.15;;
66429;SDS011;53242;51.694;10.006;2023-01-19T08:09:50;10.45;;;3.78;;
66429;SDS011;53242;51.694;10.006;2023-01-19T08:12:12;9.52;;;3.25;;
66429;SDS011;53242;51.694;10.006;2023-01-19T08:14:35;8.70;;;2.88;;
66429;SDS011;53242;51.694;10.006;2023-01-19T08:16:58;9.05;;;3.55;;
66429;SDS011;53242;51.694;10.006;2023-01-19T08:19:21;12.27;;;4.60;;
66429;SDS011;53242;51.694;10.006;2023-01-19T08:21:43;8.77;;;3.33;;
66429;SDS011;53242;51.694;10.006;2023-01-19T08:24:09;10.05;;;3.30;;
66429;SDS011;53242;51.694;10.006;2023-01-19T08:26:39;8.23;;;2.33;;
66429;SDS011;53242;51.694;10.006;2023-01-19T08:29:03;7.40;;;2.85;;
66429;SDS011;53242;51.694;10.006;2023-01-19T08:31:26;6.40;;;2.65;;
66429;SDS011;53242;51.694;10.006;2023-01-19T08:33:49;5.18;;;2.13;;
66429;SDS011;53242;51.694;10.006;2023-01-19T08:36:11;9.93;;;3.25;;
66429;SDS011;53242;51.694;10.006;2023-01-19T08:38:33;6.20;;;2.20;;
66429;SDS011;53242;51.694;10.006;2023-01-19T08:40:56;7.72;;;2.70;;
66429;SDS011;53242;51.694;10.006;2023-01-19T08:43:18;10.70;;;3.75;;
66429;SDS011;53242;51.694;10.006;2023-01-19T08:45:42;7.43;;;2.65;;
66429;SDS011;53242;51.694;10.006;2023-01-19T08:48:09;11.43;;;3.75;;
66429;SDS011;53242;51.694;10.006;2023-01-19T08:50:32;9.23;;;2.92;;
66429;SDS011;53242;51.694;10.006;2023-01-19T08:52:55;5.32;;;2.40;;
66429;SDS011;53242;51.694;10.006;2023-01-19T08:55:18;14.68;;;2.95;;
66429;SDS011;53242;51.694;10.006;2023-01-19T08:57:41;5.90;;;1.90;;
66429;SDS011;53242;51.694;10.006;2023-01-19T09:00:03;9.88;;;3.15;;
66429;SDS011;53242;51.694;10.006;2023-01-19T09:02:28;9.32;;;2.50;;
66429;SDS011;53242;51.694;10.006;2023-01-19T09:04:51;6.18;;;1.95;;
66429;SDS011;53242;51.694;10.006;2023-01-19T09:07:13;11.80;;;3.88;;
66429;SDS011;53242;51.694;10.006;2023-01-19T09:09:36;10.82;;;2.15;;
66429;SDS011;53242;51.694;10.006;2023-01-19T09:12:00;8.00;;;2.65;;
66429;SDS011;53242;51.694;10.006;2023-01-19T09:14:22;13.32;;;3.63;;
66429;SDS011;53242;51.694;10.006;2023-01-19T09:16:45;6.55;;;2.50;;
66429;SDS011;53242;51.694;10.006;2023-01-19T09:19:07;11.82;;;3.38;;
66429;SDS011;53242;51.694;10.006;2023-01-19T09:21:30;11.07;;;3.67;;
66429;SDS011;53242;51.694;10.006;2023-01-19T09:23:52;13.35;;;4.20;;
66429;SDS011;53242;51.694;10.006;2023-01-19T09:26:15;8.27;;;3.42;;
66429;SDS011;53242;51.694;10.006;2023-01-19T09:28:38;13.25;;;4.53;;
66429;SDS011;53242;51.694;10.006;2023-01-19T09:31:04;9.80;;;3.38;;
66429;SDS011;53242;51.694;10.006;2023-01-19T09:33:28;10.52;;;3.70;;
66429;SDS011;53242;51.694;10.006;2023-01-19T09:35:51;7.68;;;2.83;;
66429;SDS011;53242;51.694;10.006;2023-01-19T09:38:13;6.20;;;1.90;;
66429;SDS011;53242;51.694;10.006;2023-01-19T09:40:48;8.52;;;2.80;;
66429;SDS011;53242;51.694;10.006;2023-01-19T09:43:15;8.45;;;3.35;;
66429;SDS011;53242;51.694;10.006;2023-01-19T09:48:15;10.73;;;4.05;;
66429;SDS011;53242;51.694;10.006;2023-01-19T09:50:43;9.68;;;3.63;;
66429;SDS011;53242;51.694;10.006;2023-01-19T09:53:24;4.57;;;2.17;;
66429;SDS011;53242;51.694;10.006;2023-01-19T09:55:59;10.75;;;3.85;;
66429;SDS011;53242;51.694;10.006;2023-01-19T09:58:22;10.35;;;4.05;;
66429;SDS011;53242;51.694;10.006;2023-01-19T10:00:46;11.18;;;3.35;;
66429;SDS011;53242;51.694;10.006;2023-01-19T10:03:17;10.63;;;3.60;;
66429;SDS011;53242;51.694;10.006;2023-01-19T10:05:43;11.35;;;3.95;;
66429;SDS011;53242;51.694;10.006;2023-01-19T10:10:44;14.57;;;4.53;;
66429;SDS011;53242;51.694;10.006;2023-01-19T10:20:53;10.73;;;4.25;;
66429;SDS011;53242;51.694;10.006;2023-01-19T10:26:04;7.78;;;2.60;;
66429;SDS011;53242;51.694;10.006;2023-01-19T10:28:30;9.32;;;3.28;;
66429;SDS011;53242;51.694;10.006;2023-01-19T10:30:53;7.05;;;2.35;;
66429;SDS011;53242;51.694;10.006;2023-01-19T10:33:16;8.98;;;3.17;;
66429;SDS011;53242;51.694;10.006;2023-01-19T10:35:39;8.82;;;3.17;;
66429;SDS011;53242;51.694;10.006;2023-01-19T10:38:01;14.88;;;3.60;;
66429;SDS011;53242;51.694;10.006;2023-01-19T10:40:26;12.68;;;4.35;;
66429;SDS011;53242;51.694;10.006;2023-01-19T10:42:53;8.73;;;3.20;;
66429;SDS011;53242;51.694;10.006;2023-01-19T10:45:21;11.93;;;3.83;;
66429;SDS011;53242;51.694;10.006;2023-01-19T10:47:47;12.27;;;4.18;;
66429;SDS011;53242;51.694;10.006;2023-01-19T10:50:27;6.50;;;3.20;;
66429;SDS011;53242;51.694;10.006;2023-01-19T10:52:52;10.88;;;4.45;;
66429;SDS011;53242;51.694;10.006;2023-01-19T10:57:52;7.90;;;3.28;;
66429;SDS011;53242;51.694;10.006;2023-01-19T11:00:36;9.93;;;3.80;;
66429;SDS011;53242;51.694;10.006;2023-01-19T11:03:00;11.60;;;3.72;;
66429;SDS011;53242;51.694;10.006;2023-01-19T11:05:24;10.50;;;4.28;;
66429;SDS011;53242;51.694;10.006;2023-01-19T11:07:48;6.95;;;2.92;;
66429;SDS011;53242;51.694;10.006;2023-01-19T11:10:21;11.60;;;3.92;;
66429;SDS011;53242;51.694;10.006;2023-01-19T11:12:56;11.70;;;2.08;;
66429;SDS011;53242;51.694;10.006;2023-01-19T11:15:35;23.30;;;7.40;;
66429;SDS011;53242;51.694;10.006;2023-01-19T11:18:03;16.55;;;5.70;;
66429;SDS011;53242;51.694;10.006;2023-01-19T11:20:28;15.25;;;4.10;;
66429;SDS011;53242;51.694;10.006;2023-01-19T11:25:36;10.07;;;3.13;;
66429;SDS011;53242;51.694;10.006;2023-01-19T11:27:58;14.75;;;4.43;;
66429;SDS011;53242;51.694;10.006;2023-01-19T11:30:23;6.40;;;2.45;;
66429;SDS011;53242;51.694;10.006;2023-01-19T11:32:46;10.98;;;2.90;;
66429;SDS011;53242;51.694;10.006;2023-01-19T11:38:04;10.50;;;3.78;;
66429;SDS011;53242;51.694;10.006;2023-01-19T11:40:27;11.77;;;4.40;;
66429;SDS011;53242;51.694;10.006;2023-01-19T11:42:49;12.30;;;3.38;;
66429;SDS011;53242;51.694;10.006;2023-01-19T11:45:13;16.08;;;3.40;;
66429;SDS011;53242;51.694;10.006;2023-01-19T11:47:48;8.07;;;2.78;;
66429;SDS011;53242;51.694;10.006;2023-01-19T11:50:20;8.50;;;2.80;;
66429;SDS011;53242;51.694;10.006;2023-01-19T11:52:46;7.45;;;2.60;;
66429;SDS011;53242;51.694;10.006;2023-01-19T11:57:52;10.32;;;4.05;;
66429;SDS011;53242;51.694;10.006;2023-01-19T12:00:21;5.95;;;2.20;;
66429;SDS011;53242;51.694;10.006;2023-01-19T12:02:46;8.57;;;3.13;;
66429;SDS011;53242;51.694;10.006;2023-01-19T12:05:15;14.05;;;4.60;;
66429;SDS011;53242;51.694;10.006;2023-01-19T12:07:41;8.27;;;2.58;;
66429;SDS011;53242;51.694;10.006;2023-01-19T12:10:19;12.27;;;3.10;;
66429;SDS011;53242;51.694;10.006;2023-01-19T12:12:46;9.90;;;3.95;;
66429;SDS011;53242;51.694;10.006;2023-01-19T12:17:55;13.45;;;4.80;;
66429;SDS011;53242;51.694;10.006;2023-01-19T12:23:12;7.43;;;2.70;;
66429;SDS011;53242;51.694;10.006;2023-01-19T12:26:43;8.60;;;3.13;;
66429;SDS011;53242;51.694;10.006;2023-01-19T12:28:48;9.90;;;3.75;;
66429;SDS011;53242;51.694;10.006;2023-01-19T12:31:18;6.50;;;2.78;;
66429;SDS011;53242;51.694;10.006;2023-01-19T12:33:42;9.20;;;3.55;;
66429;SDS011;53242;51.694;10.006;2023-01-19T12:41:14;10.10;;;3.45;;
66429;SDS011;53242;51.694;10.006;2023-01-19T12:43:42;8.18;;;2.78;;
66429;SDS011;53242;51.694;10.006;2023-01-19T12:46:18;12.93;;;3.85;;
66429;SDS011;53242;51.694;10.006;2023-01-19T12:48:49;8.55;;;3.22;;
66429;SDS011;53242;51.694;10.006;2023-01-19T12:51:21;10.10;;;3.03;;
66429;SDS011;53242;51.694;10.006;2023-01-19T12:53:50;10.60;;;3.67;;
66429;SDS011;53242;51.694;10.006;2023-01-19T12:56:15;12.13;;;4.10;;
66429;SDS011;53242;51.694;10.006;2023-01-19T12:58:38;10.75;;;3.50;;
66429;SDS011;53242;51.694;10.006;2023-01-19T13:03:46;9.95;;;3.45;;
66429;SDS011;53242;51.694;10.006;2023-01-19T13:14:36;7.93;;;2.85;;
66429;SDS011;53242;51.694;10.006;2023-01-19T13:16:59;10.50;;;3.85;;
66429;SDS011;53242;51.694;10.006;2023-01-19T13:19:27;9.38;;;3.15;;
66429;SDS011;53242;51.694;10.006;2023-01-19T13:21:57;9.57;;;3.80;;
66429;SDS011;53242;51.694;10.006;2023-01-19T13:24:19;11.98;;;3.85;;
66429;SDS011;53242;51.694;10.006;2023-01-19T13:29:24;8.88;;;3.20;;
66429;SDS011;53242;51.694;10.006;2023-01-19T13:31:58;10.02;;;3.53;;
66429;SDS011;53242;51.694;10.006;2023-01-19T13:34:25;9.30;;;3.13;;
66429;SDS011;53242;51.694;10.006;2023-01-19T13:36:50;8.98;;;3.38;;
66429;SDS011;53242;51.694;10.006;2023-01-19T13:39:19;7.82;;;2.80;;
66429;SDS011;53242;51.694;10.006;2023-01-19T13:41:47;9.30;;;2.95;;
66429;SDS011;53242;51.694;10.006;2023-01-19T13:46:39;9.55;;;3.17;;
66429;SDS011;53242;51.694;10.006;2023-01-19T13:49:03;7.53;;;2.95;;
66429;SDS011;53242;51.694;10.006;2023-01-19T13:51:34;12.52;;;3.38;;
66429;SDS011;53242;51.694;10.006;2023-01-19T13:53:57;8.57;;;3.08;;
66429;SDS011;53242;51.694;10.006;2023-01-19T13:56:23;7.93;;;2.70;;
66429;SDS011;53242;51.694;10.006;2023-01-19T13:58:57;7.65;;;2.15;;
66429;SDS011;53242;51.694;10.006;2023-01-19T14:01:22;8.73;;;2.90;;
66429;SDS011;53242;51.694;10.006;2023-01-19T14:03:45;7.45;;;2.75;;
66429;SDS011;53242;51.694;10.006;2023-01-19T14:06:20;7.60;;;2.88;;
66429;SDS011;53242;51.694;10.006;2023-01-19T14:08:43;6.75;;;2.65;;
66429;SDS011;53242;51.694;10.006;2023-01-19T14:11:11;7.60;;;2.85;;
66429;SDS011;53242;51.694;10.006;2023-01-19T14:13:34;5.45;;;2.05;;
66429;SDS011;53242;51.694;10.006;2023-01-19T14:18:34;5.78;;;1.70;;
66429;SDS011;53242;51.694;10.006;2023-01-19T14:20:58;7.03;;;2.63;;
66429;SDS011;53242;51.694;10.006;2023-01-19T14:26:51;7.22;;;2.83;;
66429;SDS011;53242;51.694;10.006;2023-01-19T14:37:26;9.90;;;3.08;;
66429;SDS011;53242;51.694;10.006;2023-01-19T14:39:49;9.73;;;3.15;;
66429;SDS011;53242;51.694;10.006;2023-01-19T14:42:22;11.05;;;3.60;;
66429;SDS011;53242;51.694;10.006;2023-01-19T14:44:49;10.10;;;3.00;;
66429;SDS011;53242;51.694;10.006;2023-01-19T14:50:04;9.20;;;3.03;;
66429;SDS011;53242;51.694;10.006;2023-01-19T14:52:31;9.68;;;3.22;;
66429;SDS011;53242;51.694;10.006;2023-01-19T14:54:57;8.80;;;2.95;;
66429;SDS011;53242;51.694;10.006;2023-01-19T14:57:21;11.45;;;3.17;;
66429;SDS011;53242;51.694;10.006;2023-01-19T14:59:44;8.00;;;2.53;;
66429;SDS011;53242;51.694;10.006;2023-01-19T15:02:10;11.75;;;3.60;;
66429;SDS011;53242;51.694;10.006;2023-01-19T15:04:32;10.68;;;3.20;;
66429;SDS011;53242;51.694;10.006;2023-01-19T15:06:55;10.35;;;3.55;;
66429;SDS011;53242;51.694;10.006;2023-01-19T15:09:17;12.77;;;4.28;;
66429;SDS011;53242;51.694;10.006;2023-01-19T15:11:40;10.38;;;4.18;;
66429;SDS011;53242;51.694;10.006;2023-01-19T15:14:03;14.48;;;4.97;;
66429;SDS011;53242;51.694;10.006;2023-01-19T15:16:26;23.70;;;8.75;;
66429;SDS011;53242;51.694;10.006;2023-01-19T15:18:50;17.52;;;6.10;;
66429;SDS011;53242;51.694;10.006;2023-01-19T15:21:13;21.67;;;9.73;;
66429;SDS011;53242;51.694;10.006;2023-01-19T15:23:37;22.85;;;10.05;;
66429;SDS011;53242;51.694;10.006;2023-01-19T15:26:00;16.33;;;6.10;;
66429;SDS011;53242;51.694;10.006;2023-01-19T15:28:24;15.80;;;5.82;;
66429;SDS011;53242;51.694;10.006;2023-01-19T15:30:47;15.27;;;5.05;;
66429;SDS011;53242;51.694;10.006;2023-01-19T15:33:19;13.40;;;5.18;;
66429;SDS011;53242;51.694;10.006;2023-01-19T15:35:42;18.77;;;6.75;;
66429;SDS011;53242;51.694;10.006;2023-01-19T15:38:04;13.05;;;4.97;;
66429;SDS011;53242;51.694;10.006;2023-01-19T15:40:27;16.15;;;5.18;;
66429;SDS011;53242;51.694;10.006;2023-01-19T15:42:49;15.77;;;5.55;;
66429;SDS011;53242;51.694;10.006;2023-01-19T15:48:06;16.20;;;4.60;;
66429;SDS011;53242;51.694;10.006;2023-01-19T15:50:30;25.40;;;5.90;;
66429;SDS011;53242;51.694;10.006;2023-01-19T15:52:53;17.05;;;5.20;;
66429;SDS011;53242;51.694;10.006;2023-01-19T15:55:15;16.95;;;6.45;;